Time;durP1;ratioP1;P1;durP2;ratioP2;P2;SDS_P1;SDS_P2;PMS_P1;PMS_P2;Temp;Humidity;BMP_temperature;BMP_pressure;BME280_temperature;BME280_humidity;BME280_pressure;Samples;Min_cycle;Max_cycle;Signal;HPM_P1;HPM_P2
2022/01/29 00:03:47;;;;;;;52.00;22.58;;;;;;;3.85;79.68;101620.22;8834147;33;20143;-73
2022/01/29 00:08:51;;;;;;;53.15;21.15;;;;;;;4.08;78.98;101604.34;8834528;33;20182;-74
2022/01/29 00:13:54;;;;;;;37.33;16.15;;;;;;;3.73;79.78;101611.75;8820234;33;20441;-76
2022/01/29 00:18:58;;;;;;;50.35;22.52;;;;;;;3.95;79.81;101587.97;8811437;33;21910;-74
2022/01/29 00:24:01;;;;;;;44.72;19.45;;;;;;;3.53;81.09;101589.38;8790701;33;20182;-75
2022/01/29 00:29:14;;;;;;;53.85;24.98;;;;;;;4.02;79.80;101564.69;8779025;33;20159;-75
2022/01/29 00:34:19;;;;;;;45.38;19.73;;;;;;;3.80;79.91;101543.28;8779532;33;20213;-74
2022/01/29 00:39:22;;;;;;;55.17;24.08;;;;;;;3.96;79.81;101548.94;8778939;33;20183;-75
2022/01/29 00:44:25;;;;;;;41.88;17.38;;;;;;;3.93;80.01;101543.75;8779230;33;20140;-76
2022/01/29 00:49:30;;;;;;;45.05;20.13;;;;;;;4.11;79.42;101531.56;8778166;33;20183;-75
2022/01/29 00:54:33;;;;;;;49.83;21.92;;;;;;;3.95;79.98;101508.19;8778650;33;20285;-75
2022/01/29 00:59:36;;;;;;;35.08;16.02;;;;;;;3.76;80.74;101517.75;8778235;33;20940;-74
2022/01/29 01:04:41;;;;;;;39.42;16.30;;;;;;;3.88;80.38;101509.34;8778294;33;20539;-74
2022/01/29 01:09:44;;;;;;;44.08;20.00;;;;;;;4.01;80.05;101491.16;8778389;33;20190;-75
2022/01/29 01:14:47;;;;;;;34.42;16.13;;;;;;;3.66;80.82;101506.56;8778124;33;20659;-75
2022/01/29 01:19:51;;;;;;;41.65;18.52;;;;;;;3.84;80.69;101497.09;8777251;33;20558;-75
2022/01/29 01:24:54;;;;;;;41.45;16.40;;;;;;;3.88;80.53;101481.88;8776980;33;20204;-75
2022/01/29 01:29:57;;;;;;;40.83;19.20;;;;;;;3.68;81.41;101494.09;8777107;33;20609;-73
2022/01/29 01:35:10;;;;;;;28.50;14.13;;;;;;;3.66;81.23;101453.41;8777496;33;20155;-73
2022/01/29 01:40:14;;;;;;;36.00;14.93;;;;;;;3.72;81.43;101453.19;8776798;33;20680;-73
2022/01/29 01:45:17;;;;;;;46.38;19.02;;;;;;;3.87;80.90;101448.25;8777889;33;20191;-74
2022/01/29 01:50:22;;;;;;;28.38;13.00;;;;;;;3.88;80.90;101439.34;8776870;33;20183;-73
2022/01/29 01:55:25;;;;;;;29.35;13.43;;;;;;;3.69;81.49;101434.69;8776694;33;20252;-75
2022/01/29 02:00:29;;;;;;;30.27;15.80;;;;;;;3.79;80.99;101410.47;8776599;33;20650;-74
2022/01/29 02:05:33;;;;;;;35.25;15.82;;;;;;;3.66;81.44;101426.81;8777539;33;20175;-73
2022/01/29 02:10:36;;;;;;;43.45;20.55;;;;;;;4.08;80.11;101430.63;8776076;33;20140;-75
2022/01/29 02:15:39;;;;;;;48.33;22.88;;;;;;;3.67;81.48;101446.28;8776921;33;20789;-75
2022/01/29 02:20:45;;;;;;;46.45;22.25;;;;;;;3.96;80.42;101402.72;8776098;33;20204;-75
2022/01/29 02:25:51;;;;;;;39.95;15.20;;;;;;;4.06;79.96;101397.91;8776717;33;20772;-74
2022/01/29 02:31:00;;;;;;;42.13;19.58;;;;;;;3.83;81.02;101394.31;8775888;33;20213;-75
2022/01/29 02:36:04;;;;;;;39.42;15.45;;;;;;;4.02;80.49;101375.88;8776045;33;20582;-74
2022/01/29 02:41:09;;;;;;;46.15;22.73;;;;;;;3.98;80.77;101366.31;8775531;33;20325;-73
2022/01/29 02:46:22;;;;;;;41.03;17.40;;;;;;;3.89;81.44;101351.56;8750642;33;20188;-73
2022/01/29 02:51:25;;;;;;;43.55;21.17;;;;;;;3.77;82.65;101346.72;8775478;33;20186;-74
2022/01/29 02:56:30;;;;;;;46.03;19.33;;;;;;;3.56;84.12;101323.59;8775487;33;20702;-76
2022/01/29 03:01:33;;;;;;;41.35;19.17;;;;;;;3.58;84.80;101319.94;8774691;33;20527;-75
2022/01/29 03:06:37;;;;;;;49.25;21.50;;;;;;;3.31;86.75;101311.19;8775926;33;20174;-75
2022/01/29 03:11:41;;;;;;;38.70;17.25;;;;;;;3.55;85.94;101296.16;8775350;33;20179;-74
2022/01/29 03:16:44;;;;;;;55.50;21.73;;;;;;;3.62;85.88;101295.00;8775688;33;20187;-75
2022/01/29 03:21:47;;;;;;;60.35;24.52;;;;;;;3.81;85.04;101296.94;8775438;33;20842;-76
2022/01/29 03:26:52;;;;;;;42.92;20.10;;;;;;;3.68;85.06;101301.88;8775237;33;20363;-74
2022/01/29 03:31:55;;;;;;;56.97;23.67;;;;;;;3.78;85.02;101283.78;8774563;33;20174;-75
2022/01/29 03:36:58;;;;;;;41.30;17.88;;;;;;;3.65;85.44;101288.72;8774621;33;20703;-75
2022/01/29 03:42:06;;;;;;;52.00;23.38;;;;;;;3.80;85.62;101261.53;8774361;33;20197;-74
2022/01/29 03:47:09;;;;;;;38.58;19.15;;;;;;;3.57;87.12;101258.91;8773785;33;20411;-75
2022/01/29 03:52:12;;;;;;;46.85;19.90;;;;;;;3.52;87.48;101259.06;8774589;33;20139;-74
2022/01/29 03:57:17;;;;;;;52.03;23.42;;;;;;;3.62;87.79;101238.31;8774894;33;20167;-74
2022/01/29 04:02:20;;;;;;;42.97;21.05;;;;;;;3.36;87.95;101236.66;8774535;33;20242;-74
2022/01/29 04:07:24;;;;;;;50.35;24.48;;;;;;;3.57;88.31;101235.84;8774364;33;20629;-74
2022/01/29 04:12:32;;;;;;;52.80;23.42;;;;;;;3.76;87.26;101237.78;8774235;33;20663;-73
2022/01/29 04:17:35;;;;;;;42.72;19.55;;;;;;;3.44;88.40;101251.38;8774764;33;20621;-72
2022/01/29 04:22:39;;;;;;;46.33;19.20;;;;;;;3.60;88.40;101229.56;8774002;33;20277;-76
2022/01/29 04:27:46;;;;;;;56.70;21.30;;;;;;;3.47;89.30;101234.47;8776070;33;20191;-75
2022/01/29 04:32:59;;;;;;;43.72;22.25;;;;;;;3.23;91.17;101215.84;8780121;33;20192;-74
2022/01/29 04:38:02;;;;;;;52.10;25.05;;;;;;;3.45;90.70;101217.72;8776139;33;20428;-73
2022/01/29 04:43:07;;;;;;;37.38;16.20;;;;;;;3.53;90.72;101215.63;8774362;33;20930;-75
2022/01/29 04:48:10;;;;;;;41.05;19.50;;;;;;;3.40;92.64;101204.63;8775221;33;20201;-75
2022/01/29 04:53:13;;;;;;;37.75;16.60;;;;;;;3.52;92.56;101184.69;8774152;33;20373;-74
2022/01/29 04:58:17;;;;;;;42.08;18.92;;;;;;;3.42;93.35;101216.03;8774202;33;20415;-74
2022/01/29 05:03:20;;;;;;;33.53;17.40;;;;;;;3.44;93.06;101202.72;8778877;33;20254;-74
2022/01/29 05:08:24;;;;;;;30.27;14.25;;;;;;;3.44;92.76;101189.44;8778200;33;20179;-75
2022/01/29 05:13:30;;;;;;;42.10;14.02;;;;;;;3.41;93.05;101176.28;8778157;33;20243;-74
2022/01/29 05:29:15;;;;;;;52.25;23.02;;;;;;;3.72;92.35;101166.16;8777341;33;20514;-75
2022/01/29 05:34:19;;;;;;;47.08;20.20;;;;;;;3.82;91.74;101144.53;8752773;33;20179;-74
2022/01/29 05:39:24;;;;;;;50.78;23.48;;;;;;;3.79;92.18;101139.34;8776846;33;20761;-74
2022/01/29 05:44:28;;;;;;;49.45;22.95;;;;;;;4.05;90.68;101143.59;8777423;33;20186;-74
2022/01/29 05:49:31;;;;;;;33.97;15.80;;;;;;;3.57;91.83;101137.56;8778673;33;20178;-75
2022/01/29 05:54:34;;;;;;;42.13;19.38;;;;;;;3.76;92.74;101143.00;8779519;33;20276;-74
2022/01/29 05:59:39;;;;;;;34.33;16.20;;;;;;;3.94;91.28;101144.03;8779317;33;20325;-75
2022/01/29 06:04:42;;;;;;;38.88;16.50;;;;;;;3.88;91.58;101123.00;8779442;33;20216;-74
2022/01/29 06:09:45;;;;;;;27.20;11.93;;;;;;;3.83;92.32;101139.16;8778715;33;20323;-75
2022/01/29 06:14:49;;;;;;;40.58;18.75;;;;;;;3.88;92.14;101099.94;8779046;33;20179;-75
2022/01/29 06:19:52;;;;;;;36.53;16.65;;;;;;;3.98;91.37;101097.78;8784450;33;20450;-74
2022/01/29 06:24:57;;;;;;;35.00;13.98;;;;;;;4.13;90.26;101089.13;8787367;33;20844;-74
2022/01/29 06:30:02;;;;;;;40.13;22.05;;;;;;;4.25;89.77;101084.22;8782390;33;20796;-74
2022/01/29 06:35:06;;;;;;;33.13;18.83;;;;;;;4.12;90.05;101087.44;8756688;33;20866;-74
2022/01/29 06:40:11;;;;;;;33.53;14.45;;;;;;;4.37;89.18;101091.69;8779740;33;20237;-75
2022/01/29 06:45:15;;;;;;;22.92;11.30;;;;;;;4.25;89.05;101106.38;8778316;33;20187;-73
2022/01/29 06:50:18;;;;;;;27.95;12.95;;;;;;;4.21;89.90;101117.22;8777865;33;21007;-74
2022/01/29 06:55:22;;;;;;;28.25;14.13;;;;;;;4.35;89.82;101102.38;8778336;33;21469;-74
2022/01/29 07:00:26;;;;;;;40.80;18.58;;;;;;;4.27;89.89;101090.34;8777281;33;20523;-74
2022/01/29 07:05:29;;;;;;;39.08;17.30;;;;;;;4.31;90.83;101089.28;8778102;33;20131;-74
2022/01/29 07:10:32;;;;;;;34.13;17.20;;;;;;;4.45;90.24;101067.41;8778514;33;22069;-74
2022/01/29 07:15:37;;;;;;;38.70;17.77;;;;;;;4.25;91.02;101069.16;8778637;33;20785;-74
2022/01/29 07:20:40;;;;;;;31.08;13.18;;;;;;;4.23;91.59;101062.16;8775991;33;20221;-75
2022/01/29 07:25:43;;;;;;;41.85;17.83;;;;;;;4.42;90.75;101054.25;8774989;33;20628;-73
2022/01/29 07:30:47;;;;;;;42.95;21.60;;;;;;;4.46;91.20;101059.34;8775489;33;20634;-75
2022/01/29 07:35:50;;;;;;;35.67;16.02;;;;;;;4.42;91.35;101051.59;8775906;33;20506;-75
2022/01/29 07:40:54;;;;;;;39.05;17.05;;;;;;;4.49;91.20;101031.72;8775694;33;20200;-74
2022/01/29 07:45:58;;;;;;;43.55;19.45;;;;;;;4.52;91.06;101032.44;8775804;33;20278;-74
2022/01/29 07:51:01;;;;;;;51.90;23.08;;;;;;;4.56;91.72;101026.06;8775449;33;20214;-74
2022/01/29 07:56:05;;;;;;;55.88;22.33;;;;;;;4.59;91.05;101025.06;8776344;33;20173;-75
2022/01/29 08:01:09;;;;;;;48.08;19.48;;;;;;;4.62;91.71;101019.59;8775433;33;20273;-74
2022/01/29 08:06:13;;;;;;;55.28;22.75;;;;;;;4.66;91.84;101022.97;8751075;33;20696;-75
2022/01/29 08:11:17;;;;;;;59.97;27.60;;;;;;;4.64;91.66;100996.44;8776372;33;20239;-76
2022/01/29 08:16:21;;;;;;;47.03;19.77;;;;;;;4.54;92.50;101011.97;8750484;33;20236;-76
2022/01/29 08:21:25;;;;;;;56.38;25.58;;;;;;;4.74;92.96;101004.84;8774688;33;20194;-76
2022/01/29 08:26:28;;;;;;;46.92;21.38;;;;;;;4.92;91.35;100998.66;8806013;33;20185;-75
2022/01/29 08:31:33;;;;;;;43.97;19.63;;;;;;;4.94;91.77;101018.09;8800103;33;20824;-75
2022/01/29 08:36:36;;;;;;;39.67;16.25;;;;;;;4.94;91.13;100995.94;8815128;33;20933;-76
2022/01/29 08:41:40;;;;;;;47.65;22.05;;;;;;;4.90;91.89;101015.66;8839249;33;20199;-75
2022/01/29 08:46:45;;;;;;;42.50;17.83;;;;;;;4.72;92.70;101006.75;8839717;33;20523;-75
2022/01/29 08:51:48;;;;;;;53.58;22.42;;;;;;;4.89;93.03;100992.63;8813299;33;20178;-75
2022/01/29 08:56:51;;;;;;;42.88;20.20;;;;;;;5.04;92.29;100995.44;8839507;33;20192;-75
2022/01/29 09:01:56;;;;;;;45.90;19.52;;;;;;;5.05;92.84;101002.50;8839005;33;20144;-77
2022/01/29 09:06:59;;;;;;;43.30;19.52;;;;;;;4.75;93.12;100991.47;8841212;33;20181;-74
2022/01/29 09:12:04;;;;;;;40.95;16.27;;;;;;;5.11;92.72;100992.50;8837973;33;20185;-77
2022/01/29 09:17:08;;;;;;;36.72;16.58;;;;;;;4.92;94.32;100988.00;8838654;33;20227;-75
2022/01/29 09:22:15;;;;;;;33.97;15.25;;;;;;;5.06;93.87;100960.75;8837788;33;20221;-75
2022/01/29 09:27:18;;;;;;;34.72;16.48;;;;;;;4.99;94.66;100972.63;8812483;33;20259;-75
2022/01/29 09:32:22;;;;;;;33.30;15.07;;;;;;;5.27;93.28;100966.84;8837647;33;20239;-75
2022/01/29 09:37:25;;;;;;;35.40;17.33;;;;;;;5.22;93.95;100942.22;8837556;33;20241;-75
2022/01/29 09:42:32;;;;;;;36.50;18.35;;;;;;;5.36;93.34;100955.72;8836496;33;20216;-77
2022/01/29 09:47:39;;;;;;;23.90;11.02;;;;;;;5.07;94.77;100959.81;8836076;33;20135;-77
2022/01/29 09:52:43;;;;;;;19.58;9.80;;;;;;;5.22;94.34;100943.06;8811342;33;20457;-77
2022/01/29 09:57:46;;;;;;;27.70;11.60;;;;;;;5.16;95.08;100943.38;8836503;33;20182;-77
2022/01/29 10:03:21;;;;;;;32.78;14.85;;;;;;;5.25;100.00;100929.59;8838443;33;20686;-76
2022/01/29 10:08:25;;;;;;;24.83;11.68;;;;;;;5.37;97.83;100937.91;8813143;33;20217;-77
2022/01/29 10:13:34;;;;;;;33.60;16.40;;;;;;;5.54;94.99;100907.72;8836702;33;20686;-77
2022/01/29 10:18:39;;;;;;;29.95;13.73;;;;;;;5.51;94.87;100895.44;8841101;33;20182;-76
2022/01/29 10:23:44;;;;;;;23.40;12.65;;;;;;;5.56;94.86;100889.88;8843732;33;20146;-75
2022/01/29 10:28:54;;;;;;;28.42;14.20;;;;;;;5.41;95.83;100878.22;8837156;33;20178;-77
2022/01/29 10:33:58;;;;;;;23.40;10.00;;;;;;;5.42;95.17;100867.47;8837442;33;20179;-76
2022/01/29 10:39:02;;;;;;;20.05;9.15;;;;;;;5.29;96.00;100871.69;8835477;33;20728;-76
2022/01/29 10:44:14;;;;;;;25.13;11.75;;;;;;;5.56;94.94;100857.88;8835493;33;21804;-76
2022/01/29 10:49:25;;;;;;;28.33;14.18;;;;;;;5.56;94.59;100873.88;8835071;33;20185;-77
2022/01/29 10:54:30;;;;;;;34.53;16.30;;;;;;;5.46;95.75;100825.56;8836799;33;20139;-76
2022/01/29 10:59:36;;;;;;;30.15;14.95;;;;;;;5.65;95.04;100814.75;8834695;33;20636;-74
2022/01/29 11:04:43;;;;;;;24.65;10.30;;;;;;;5.57;94.87;100800.97;8834752;33;20203;-75
2022/01/29 11:09:50;;;;;;;27.60;12.20;;;;;;;5.64;95.31;100805.03;8834807;33;20246;-76
2022/01/29 11:14:58;;;;;;;25.25;12.57;;;;;;;5.64;95.97;100781.06;8834792;33;20190;-75
2022/01/29 11:20:05;;;;;;;22.45;10.98;;;;;;;5.66;95.53;100768.50;8834091;33;20163;-75
2022/01/29 11:25:12;;;;;;;19.92;7.28;;;;;;;5.71;95.37;100750.47;8811187;33;20676;-77
2022/01/29 11:30:17;;;;;;;16.33;9.52;;;;;;;5.96;97.23;100731.28;8834177;33;20428;-76
2022/01/29 11:35:22;;;;;;;25.80;12.57;;;;;;;5.80;95.97;100736.63;8835328;33;20206;-75
2022/01/29 11:40:31;;;;;;;21.00;10.43;;;;;;;6.07;94.54;100717.34;8834625;33;20432;-75
2022/01/29 11:45:42;;;;;;;21.63;9.75;;;;;;;5.89;94.73;100696.09;8809756;33;20191;-77
2022/01/29 11:50:49;;;;;;;22.33;12.07;;;;;;;5.83;96.24;100704.44;8833228;33;21882;-77
2022/01/29 11:55:54;;;;;;;22.17;10.73;;;;;;;5.95;95.79;100708.22;8832881;33;20190;-77
2022/01/29 12:00:59;;;;;;;21.42;10.80;;;;;;;5.81;96.50;100706.34;8798722;33;20262;-76
2022/01/29 12:06:19;;;;;;;26.10;12.82;;;;;;;5.86;96.72;100695.41;8804553;33;20187;-75
2022/01/29 12:11:23;;;;;;;24.55;10.82;;;;;;;6.10;96.22;100680.69;8774755;33;20139;-75
2022/01/29 12:16:48;;;;;;;20.70;9.25;;;;;;;5.94;96.04;100695.84;8773468;33;20269;-74
2022/01/29 12:21:52;;;;;;;22.45;10.50;;;;;;;6.12;94.65;100750.81;8773345;33;20329;-76
2022/01/29 12:26:56;;;;;;;22.45;11.27;;;;;;;5.97;96.47;100687.66;8774497;33;20143;-75
2022/01/29 12:31:59;;;;;;;19.00;10.18;;;;;;;6.27;94.83;100678.84;8774760;33;20277;-75
2022/01/29 12:37:13;;;;;;;19.90;9.43;;;;;;;6.09;94.76;100665.66;8773657;33;20612;-76
2022/01/29 12:42:28;;;;;;;25.23;13.05;;;;;;;6.34;94.29;100669.56;8773753;33;20158;-75
2022/01/29 12:47:34;;;;;;;25.08;14.20;;;;;;;6.42;92.73;100635.28;8774160;33;21160;-76
2022/01/29 12:52:39;;;;;;;23.67;12.45;;;;;;;6.55;92.26;100632.69;8763837;33;20136;-75
2022/01/29 12:57:47;;;;;;;22.52;12.20;;;;;;;6.70;90.85;100620.25;8783438;33;20213;-75
2022/01/29 13:02:50;;;;;;;19.10;9.38;;;;;;;6.69;90.51;100583.81;8774448;33;20201;-75
2022/01/29 13:07:55;;;;;;;16.92;8.88;;;;;;;6.62;90.15;100557.50;8779002;33;20147;-75
2022/01/29 13:12:58;;;;;;;17.35;9.35;;;;;;;6.80;89.14;100576.88;8804233;33;20199;-76
2022/01/29 13:18:01;;;;;;;17.42;9.07;;;;;;;6.99;88.21;100568.59;8801504;33;20221;-76
2022/01/29 13:23:05;;;;;;;15.88;8.13;;;;;;;6.94;88.53;100557.34;8778709;33;20201;-75
2022/01/29 13:28:12;;;;;;;15.90;9.48;;;;;;;7.10;88.09;100564.38;8806540;33;20151;-75
2022/01/29 13:33:18;;;;;;;18.15;10.00;;;;;;;7.12;87.83;100576.69;8807632;33;20685;-75
2022/01/29 13:38:27;;;;;;;20.80;10.07;;;;;;;6.78;89.55;100569.91;8805597;33;20207;-74
2022/01/29 13:43:35;;;;;;;18.50;11.75;;;;;;;7.08;88.75;100583.19;8795564;33;20428;-75
2022/01/29 13:48:45;;;;;;;18.88;10.02;;;;;;;6.96;88.86;100559.91;8778280;33;20333;-76
2022/01/29 13:53:50;;;;;;;16.63;9.02;;;;;;;6.81;89.57;100559.03;8778710;33;20221;-77
2022/01/29 13:58:56;;;;;;;16.90;9.50;;;;;;;6.97;89.49;100566.97;8777346;33;20780;-76
2022/01/29 14:04:00;;;;;;;12.18;6.22;;;;;;;7.04;88.81;100552.25;8804575;33;22265;-75
2022/01/29 14:09:27;;;;;;;9.55;6.20;;;;;;;6.98;88.63;100526.81;8803168;33;20171;-75
2022/01/29 14:14:39;;;;;;;13.75;8.65;;;;;;;7.25;87.22;100510.81;8777011;33;20977;-76
2022/01/29 14:19:45;;;;;;;16.15;9.10;;;;;;;7.22;87.00;100540.41;8776788;33;20204;-75
2022/01/29 14:24:51;;;;;;;13.50;4.60;;;;;;;7.26;86.45;100504.50;8776780;33;20702;-75
2022/01/29 14:29:54;;;;;;;14.85;7.60;;;;;;;7.19;86.66;100507.69;8744217;33;20271;-75
2022/01/29 14:34:57;;;;;;;15.20;7.72;;;;;;;7.07;88.56;100517.34;8777342;33;20244;-75
2022/01/29 14:40:06;;;;;;;11.30;6.18;;;;;;;7.00;90.37;100514.22;8775697;33;20175;-76
2022/01/29 14:45:10;;;;;;;9.20;4.88;;;;;;;6.71;92.29;100508.00;8775367;33;20667;-74
2022/01/29 14:50:14;;;;;;;11.13;7.82;;;;;;;6.75;93.00;100506.03;8775786;33;20195;-75
2022/01/29 14:55:19;;;;;;;13.50;7.35;;;;;;;6.51;94.92;100471.06;8776480;33;20147;-75
2022/01/29 15:00:26;;;;;;;10.82;5.97;;;;;;;6.52;94.72;100488.78;8775545;33;20703;-76
2022/01/29 15:05:29;;;;;;;15.07;8.10;;;;;;;6.67;94.98;100471.81;8775787;33;20187;-75
2022/01/29 15:10:35;;;;;;;13.18;7.35;;;;;;;6.51;96.30;100469.25;8774788;33;20226;-75
2022/01/29 15:15:40;;;;;;;16.23;9.88;;;;;;;6.66;95.58;100470.06;8777982;33;20194;-76
2022/01/29 15:20:48;;;;;;;17.23;9.68;;;;;;;6.57;96.47;100457.31;8776136;33;20247;-75
2022/01/29 15:25:53;;;;;;;13.93;8.43;;;;;;;6.84;95.33;100482.25;8776234;33;20657;-75
2022/01/29 15:30:59;;;;;;;24.98;13.13;;;;;;;6.72;96.17;100482.16;8775920;33;20281;-75
2022/01/29 15:36:03;;;;;;;25.63;14.20;;;;;;;6.72;95.95;100469.72;8775396;33;20207;-76
2022/01/29 15:41:08;;;;;;;17.00;11.32;;;;;;;6.88;95.71;100468.75;8775127;33;20198;-75
2022/01/29 15:46:11;;;;;;;9.93;6.20;;;;;;;6.85;94.76;100467.09;8773843;33;20153;-76
2022/01/29 15:51:15;;;;;;;10.45;5.80;;;;;;;6.79;95.24;100473.69;8775296;33;20155;-75
2022/01/29 15:56:19;;;;;;;16.15;10.20;;;;;;;6.85;94.50;100446.56;8774880;33;20429;-76
2022/01/29 16:01:22;;;;;;;19.75;12.63;;;;;;;6.96;94.00;100456.59;8780091;33;20205;-76
2022/01/29 16:06:26;;;;;;;13.45;9.07;;;;;;;7.03;93.24;100446.38;8777886;33;20182;-76
2022/01/29 16:11:30;;;;;;;13.50;10.15;;;;;;;7.11;92.92;100454.75;8751591;33;20178;-76
2022/01/29 16:16:33;;;;;;;13.63;8.05;;;;;;;7.22;91.28;100433.53;8774379;33;20190;-76
2022/01/29 16:21:36;;;;;;;12.02;8.30;;;;;;;7.04;90.79;100461.44;8773972;33;20143;-76
2022/01/29 16:26:40;;;;;;;13.98;7.50;;;;;;;7.23;90.88;100429.91;8774602;33;20244;-75
2022/01/29 16:31:43;;;;;;;11.27;7.00;;;;;;;7.28;89.79;100453.66;8775271;33;20135;-75
2022/01/29 16:36:47;;;;;;;12.95;9.20;;;;;;;7.42;89.01;100450.06;8774614;33;20182;-75
2022/01/29 16:41:51;;;;;;;12.05;7.10;;;;;;;7.76;87.04;100419.19;8774791;33;20241;-75
2022/01/29 16:46:54;;;;;;;14.30;7.68;;;;;;;7.80;88.30;100441.25;8774377;33;20439;-74
2022/01/29 16:51:58;;;;;;;10.25;6.47;;;;;;;7.23;90.06;100437.06;8748433;33;20435;-74
2022/01/29 16:57:03;;;;;;;12.25;6.80;;;;;;;7.21;90.24;100436.28;8777113;33;20175;-76
2022/01/29 17:02:09;;;;;;;13.63;7.00;;;;;;;7.67;88.79;100455.44;8777938;33;20638;-75
2022/01/29 17:07:15;;;;;;;9.40;5.25;;;;;;;7.33;89.17;100445.34;8754485;33;20183;-75
2022/01/29 17:12:20;;;;;;;9.70;5.07;;;;;;;7.28;87.67;100451.81;8755321;33;20182;-76
2022/01/29 17:17:23;;;;;;;11.02;6.88;;;;;;;7.57;86.82;100453.50;8779553;33;20660;-76
2022/01/29 17:22:27;;;;;;;10.48;7.00;;;;;;;7.58;85.59;100471.28;8780316;33;20190;-75
2022/01/29 17:27:31;;;;;;;8.68;6.18;;;;;;;7.54;84.78;100448.38;8778598;33;20243;-76
2022/01/29 17:32:49;;;;;;;7.32;3.92;;;;;;;7.82;83.18;100490.16;8778471;33;20182;-75
2022/01/29 17:37:53;;;;;;;8.05;4.13;;;;;;;7.67;82.36;100498.22;8778041;33;20182;-76
2022/01/29 17:42:58;;;;;;;8.00;3.80;;;;;;;7.88;80.86;100495.94;8777160;33;20182;-75
2022/01/29 17:48:01;;;;;;;6.93;2.47;;;;;;;7.52;80.74;100523.34;8778547;33;20194;-76
2022/01/29 17:53:06;;;;;;;11.00;2.65;;;;;;;7.14;81.16;100529.34;8777543;33;20190;-76
2022/01/29 17:58:12;;;;;;;7.60;2.53;;;;;;;7.54;80.23;100547.28;8777765;33;20606;-76
2022/01/29 18:03:15;;;;;;;6.07;2.22;;;;;;;7.15;78.53;100552.44;8777493;33;20243;-75
2022/01/29 18:08:18;;;;;;;11.05;3.10;;;;;;;7.05;77.92;100560.19;8777294;33;20361;-76
2022/01/29 18:13:24;;;;;;;10.60;2.95;;;;;;;6.79;77.78;100582.31;8777779;33;20437;-75
2022/01/29 18:18:27;;;;;;;8.90;3.08;;;;;;;6.73;74.93;100593.38;8752171;33;20191;-76
2022/01/29 18:23:30;;;;;;;17.38;3.40;;;;;;;7.12;75.83;100595.38;8774866;33;20187;-76
2022/01/29 18:28:35;;;;;;;12.13;5.07;;;;;;;6.83;76.77;100597.19;8777058;33;20849;-76
2022/01/29 18:33:38;;;;;;;6.95;2.85;;;;;;;6.29;80.10;100607.59;8776718;33;20202;-76
2022/01/29 18:38:42;;;;;;;14.88;4.10;;;;;;;6.40;80.58;100616.66;8776034;33;20197;-76
2022/01/29 18:43:47;;;;;;;10.43;3.78;;;;;;;6.39;78.77;100619.44;8777733;33;20510;-76
2022/01/29 18:48:50;;;;;;;11.80;3.58;;;;;;;6.76;75.62;100636.75;8776240;33;21313;-76
2022/01/29 18:53:53;;;;;;;12.55;3.55;;;;;;;6.97;72.77;100661.31;8777340;33;20179;-75
2022/01/29 18:58:57;;;;;;;13.13;3.40;;;;;;;6.74;72.31;100673.34;8776263;33;20175;-76
2022/01/29 19:04:00;;;;;;;11.57;4.25;;;;;;;6.98;71.77;100665.69;8776884;33;20204;-75
2022/01/29 19:09:04;;;;;;;10.07;5.32;;;;;;;6.93;70.25;100641.06;8776267;33;20957;-76
2022/01/29 19:14:08;;;;;;;11.00;4.32;;;;;;;6.90;69.81;100665.31;8778153;33;20293;-76
2022/01/29 19:19:11;;;;;;;12.60;4.18;;;;;;;7.25;70.05;100681.81;8812758;33;21879;-76
2022/01/29 19:24:14;;;;;;;14.50;4.45;;;;;;;7.00;69.04;100687.84;8810929;33;20183;-75
2022/01/29 19:29:19;;;;;;;9.73;3.88;;;;;;;6.87;68.65;100716.22;8792164;33;20155;-76
2022/01/29 19:34:22;;;;;;;11.40;4.85;;;;;;;7.02;66.53;100690.41;8776550;33;20171;-76
2022/01/29 19:39:25;;;;;;;14.88;4.57;;;;;;;6.82;66.26;100731.63;8750161;33;20313;-76
2022/01/29 19:44:30;;;;;;;11.40;4.55;;;;;;;6.94;67.49;100714.03;8750929;33;20601;-76
2022/01/29 19:49:33;;;;;;;14.02;4.07;;;;;;;6.71;67.21;100710.91;8774367;33;20583;-75
2022/01/29 19:54:37;;;;;;;20.92;4.47;;;;;;;6.81;67.35;100714.75;8775503;33;20210;-75
2022/01/29 19:59:41;;;;;;;14.93;3.78;;;;;;;6.39;67.75;100729.69;8774609;33;20503;-74
2022/01/29 20:04:44;;;;;;;9.23;3.08;;;;;;;6.29;68.47;100733.84;8813646;33;20154;-75
2022/01/29 20:09:48;;;;;;;14.30;3.47;;;;;;;6.43;68.26;100718.84;8834806;33;20182;-76
2022/01/29 20:14:52;;;;;;;11.00;3.58;;;;;;;6.66;67.93;100714.81;8835344;33;20189;-75
2022/01/29 20:19:55;;;;;;;11.38;4.85;;;;;;;6.26;67.58;100746.50;8834511;33;20190;-75
2022/01/29 20:24:58;;;;;;;16.48;4.47;;;;;;;6.51;68.30;100738.78;8835052;33;20203;-75
2022/01/29 20:30:02;;;;;;;14.20;3.78;;;;;;;6.62;67.63;100754.19;8835761;33;20194;-75
2022/01/29 20:35:11;;;;;;;17.58;5.20;;;;;;;6.61;68.40;100744.47;8840642;33;20189;-75
2022/01/29 20:40:15;;;;;;;12.15;4.95;;;;;;;6.15;67.67;100739.13;8839814;33;20227;-75
2022/01/29 20:45:20;;;;;;;14.77;4.57;;;;;;;6.21;68.15;100753.91;8839755;33;20670;-75
2022/01/29 20:50:23;;;;;;;12.50;5.25;;;;;;;6.11;68.83;100765.09;8838987;33;20735;-75
2022/01/29 20:55:29;;;;;;;23.00;7.72;;;;;;;6.28;68.43;100764.16;8839482;33;20190;-75
2022/01/29 21:00:35;;;;;;;14.73;6.30;;;;;;;6.10;68.52;100774.03;8839328;33;20151;-75
2022/01/29 21:05:38;;;;;;;21.67;8.10;;;;;;;6.06;68.93;100780.50;8839320;33;20300;-75
2022/01/29 21:10:41;;;;;;;14.38;5.57;;;;;;;6.24;68.31;100775.94;8838627;33;20186;-75
2022/01/29 21:15:45;;;;;;;12.60;5.32;;;;;;;5.97;68.51;100786.34;8811840;33;20687;-74
2022/01/29 21:20:51;;;;;;;28.63;9.43;;;;;;;6.27;68.40;100790.91;8837877;33;20619;-76
2022/01/29 21:25:54;;;;;;;21.15;8.57;;;;;;;6.16;67.92;100795.03;8838420;33;20199;-75
2022/01/29 21:30:58;;;;;;;9.73;3.88;;;;;;;5.75;69.14;100772.47;8838140;33;20230;-75
2022/01/29 21:36:03;;;;;;;18.33;6.47;;;;;;;5.72;70.17;100786.81;8848176;33;20222;-75
2022/01/29 21:41:06;;;;;;;16.20;4.63;;;;;;;5.76;69.95;100766.19;8843704;33;20621;-76
2022/01/29 21:46:10;;;;;;;12.80;3.50;;;;;;;5.71;70.15;100793.97;8839037;33;20189;-76
2022/01/29 21:51:13;;;;;;;11.93;3.60;;;;;;;5.87;73.13;100807.34;8837531;33;20765;-75
2022/01/29 21:56:16;;;;;;;15.25;4.18;;;;;;;5.05;78.87;100828.56;8836376;33;20275;-75
2022/01/29 22:01:21;;;;;;;8.85;2.80;;;;;;;4.91;81.67;100844.31;8837281;33;20181;-75
2022/01/29 22:06:24;;;;;;;7.38;2.88;;;;;;;4.65;83.05;100864.25;8839253;33;20177;-74
2022/01/29 22:11:27;;;;;;;6.78;3.53;;;;;;;4.33;83.25;100858.66;8836400;33;20247;-77
2022/01/29 22:16:32;;;;;;;12.27;3.20;;;;;;;4.26;80.14;100867.88;8838574;33;21706;-76
2022/01/29 22:21:36;;;;;;;13.65;3.85;;;;;;;4.37;77.63;100868.22;8832047;33;20181;-76
2022/01/29 22:26:39;;;;;;;15.38;3.20;;;;;;;4.77;76.42;100890.25;8806933;33;20489;-76
2022/01/29 22:31:44;;;;;;;15.52;4.60;;;;;;;4.75;73.38;100892.13;8791694;33;20181;-77
2022/01/29 22:36:50;;;;;;;10.82;3.92;;;;;;;5.14;72.06;100884.00;8807715;33;20233;-77
2022/01/29 22:41:53;;;;;;;12.40;2.92;;;;;;;4.70;71.38;100891.50;8807248;33;20208;-74
2022/01/29 22:46:57;;;;;;;13.40;3.78;;;;;;;4.75;69.93;100908.97;8805264;33;21656;-76
2022/01/29 22:52:03;;;;;;;12.90;3.40;;;;;;;4.95;68.82;100897.34;8832301;33;20190;-76
2022/01/29 22:57:08;;;;;;;12.10;3.08;;;;;;;4.85;68.81;100920.00;8825988;33;21678;-75
2022/01/29 23:02:13;;;;;;;13.75;4.22;;;;;;;4.74;68.32;100915.22;8805483;33;20205;-75
2022/01/29 23:07:17;;;;;;;20.10;3.88;;;;;;;4.96;67.64;100915.03;8782253;33;20201;-75
2022/01/29 23:12:26;;;;;;;9.02;2.67;;;;;;;4.54;67.88;100904.66;8810097;33;20193;-75
2022/01/29 23:17:30;;;;;;;13.30;3.85;;;;;;;4.75;66.87;100914.28;8802449;33;20189;-74
2022/01/29 23:22:46;;;;;;;12.32;4.13;;;;;;;4.73;66.56;100905.50;8804446;33;20185;-77
2022/01/29 23:28:04;;;;;;;10.75;2.58;;;;;;;4.75;66.11;100932.94;8779203;33;20231;-74
2022/01/29 23:33:32;;;;;;;8.70;3.63;;;;;;;4.80;65.20;100906.06;8775196;33;20245;-74
2022/01/29 23:38:35;;;;;;;11.68;3.65;;;;;;;4.54;66.88;100956.09;8749594;33;20616;-74
2022/01/29 23:43:45;;;;;;;8.63;3.20;;;;;;;4.52;67.70;100960.59;8775241;33;20178;-74